createdAt,value
2022-11-19T00:01:34.118Z,6.10
2022-11-19T00:04:01.591Z,7.50
2022-11-19T00:06:29.196Z,7.00
2022-11-19T00:08:56.665Z,6.77
2022-11-19T00:11:44.855Z,5.53
2022-11-19T00:16:42.089Z,6.63
2022-11-19T00:19:13.107Z,7.27
2022-11-19T00:21:40.664Z,6.20
2022-11-19T00:24:08.752Z,8.87
2022-11-19T00:26:36.250Z,6.43
2022-11-19T00:29:04.050Z,7.93
2022-11-19T00:31:31.890Z,7.00
2022-11-19T00:33:59.355Z,5.77
2022-11-19T00:36:26.813Z,6.57
2022-11-19T00:38:54.622Z,5.97
2022-11-19T00:41:22.268Z,9.07
2022-11-19T00:43:52.722Z,6.97
2022-11-19T00:46:29.154Z,6.33
2022-11-19T00:48:58.941Z,6.30
2022-11-19T00:51:29.211Z,6.77
2022-11-19T00:53:57.607Z,7.83
2022-11-19T00:56:27.583Z,8.40
2022-11-19T00:58:56.138Z,5.63
2022-11-19T01:01:25.727Z,8.97
2022-11-19T01:03:54.132Z,8.23
2022-11-19T01:06:23.890Z,6.73
2022-11-19T01:08:53.264Z,5.27
2022-11-19T01:11:23.385Z,7.63
2022-11-19T01:13:51.519Z,6.60
2022-11-19T01:16:30.903Z,7.50
2022-11-19T01:18:58.712Z,8.10
2022-11-19T01:21:29.599Z,5.87
2022-11-19T01:23:58.099Z,7.20
2022-11-19T01:26:26.486Z,6.80
2022-11-19T01:28:54.752Z,6.17
2022-11-19T01:31:25.182Z,8.07
2022-11-19T01:33:53.427Z,6.43
2022-11-19T01:36:24.495Z,9.63
2022-11-19T01:38:52.695Z,7.67
2022-11-19T01:41:32.012Z,9.80
2022-11-19T01:44:01.896Z,7.37
2022-11-19T01:46:32.586Z,6.93
2022-11-19T01:49:19.083Z,8.20
2022-11-19T01:51:55.935Z,7.20
2022-11-19T01:54:31.325Z,6.50
2022-11-19T01:57:03.643Z,7.13
2022-11-19T01:59:31.982Z,6.17
2022-11-19T02:02:00.129Z,7.27
2022-11-19T02:04:28.715Z,7.13
2022-11-19T02:06:57.176Z,6.63
2022-11-19T02:09:26.823Z,7.00
2022-11-19T02:12:00.616Z,8.07
2022-11-19T02:14:37.006Z,7.27
2022-11-19T02:17:25.926Z,6.57
2022-11-19T02:20:02.092Z,6.80
2022-11-19T02:26:06.196Z,7.93
2022-11-19T02:28:44.252Z,7.87
2022-11-19T02:31:47.504Z,6.70
2022-11-19T02:34:22.023Z,6.03
2022-11-19T02:37:05.502Z,6.03
2022-11-19T02:39:35.672Z,6.93
2022-11-19T02:42:27.867Z,6.57
2022-11-19T02:45:00.021Z,7.30
2022-11-19T02:47:37.335Z,8.73
2022-11-19T02:50:13.712Z,7.03
2022-11-19T02:52:44.008Z,12.95
2022-11-19T02:55:16.736Z,8.13
2022-11-19T02:57:51.535Z,6.53
2022-11-19T03:00:37.627Z,10.03
2022-11-19T03:03:38.463Z,6.87
2022-11-19T03:06:11.982Z,8.80
2022-11-19T03:08:39.711Z,7.03
2022-11-19T03:11:20.773Z,11.20
2022-11-19T03:14:18.824Z,6.13
2022-11-19T03:17:21.694Z,8.88
2022-11-19T03:20:04.707Z,8.43
2022-11-19T03:22:42.334Z,10.33
2022-11-19T03:25:16.451Z,10.17
2022-11-19T03:27:48.449Z,6.83
2022-11-19T03:30:18.586Z,7.60
2022-11-19T03:32:51.935Z,7.63
2022-11-19T03:35:33.014Z,9.23
2022-11-19T03:38:05.722Z,8.37
2022-11-19T03:40:34.822Z,10.17
2022-11-19T03:43:05.479Z,10.67
2022-11-19T03:45:39.647Z,6.47
2022-11-19T03:48:07.755Z,14.03
2022-11-19T03:50:56.795Z,8.43
2022-11-19T03:53:25.143Z,11.53
2022-11-19T03:56:04.075Z,7.23
2022-11-19T03:58:43.020Z,7.87
2022-11-19T04:01:10.823Z,10.97
2022-11-19T04:03:38.646Z,11.13
2022-11-19T04:06:06.732Z,9.37
2022-11-19T04:08:34.221Z,10.17
2022-11-19T04:13:28.051Z,8.68
2022-11-19T04:15:55.557Z,11.40
2022-11-19T04:18:23.109Z,6.07
2022-11-19T04:20:53.043Z,6.37
2022-11-19T04:23:20.649Z,6.90
2022-11-19T04:25:48.322Z,7.93
2022-11-19T04:28:15.839Z,10.77
2022-11-19T04:30:52.913Z,12.37
2022-11-19T04:33:20.523Z,13.33
2022-11-19T04:35:48.058Z,12.63
2022-11-19T04:38:15.602Z,11.00
2022-11-19T04:40:43.046Z,7.80
2022-11-19T04:43:10.564Z,10.10
2022-11-19T04:45:38.029Z,10.10
2022-11-19T04:48:05.788Z,9.10
2022-11-19T04:50:33.255Z,5.97
2022-11-19T04:53:00.697Z,5.27
2022-11-19T04:55:28.310Z,7.83
2022-11-19T04:57:55.753Z,5.83
2022-11-19T05:00:23.926Z,4.60
2022-11-19T05:02:51.434Z,5.50
2022-11-19T05:05:19.012Z,4.47
2022-11-19T05:07:47.066Z,6.60
2022-11-19T05:10:14.714Z,5.83
2022-11-19T05:12:42.175Z,5.80
2022-11-19T05:15:10.641Z,4.83
2022-11-19T05:17:38.083Z,6.73
2022-11-19T05:20:06.278Z,5.87
2022-11-19T05:22:33.762Z,5.87
2022-11-19T05:25:01.401Z,4.67
2022-11-19T05:27:30.515Z,6.40
2022-11-19T05:29:57.997Z,5.67
2022-11-19T05:32:25.456Z,5.13
2022-11-19T05:34:53.080Z,5.20
2022-11-19T05:37:20.554Z,5.13
2022-11-19T05:39:47.980Z,7.73
2022-11-19T05:42:15.503Z,8.13
2022-11-19T05:44:43.087Z,9.03
2022-11-19T05:47:10.743Z,6.23
2022-11-19T05:49:38.192Z,5.57
2022-11-19T05:52:05.695Z,7.57
2022-11-19T05:54:33.218Z,6.40
2022-11-19T05:57:00.826Z,6.60
2022-11-19T05:59:28.276Z,4.77
2022-11-19T06:01:55.907Z,4.63
2022-11-19T06:04:24.104Z,6.70
2022-11-19T06:06:52.040Z,7.13
2022-11-19T06:09:19.665Z,6.27
2022-11-19T06:11:53.168Z,6.43
2022-11-19T06:14:25.685Z,6.57
2022-11-19T06:17:00.902Z,9.50
2022-11-19T06:19:28.643Z,7.77
2022-11-19T06:21:56.177Z,6.73
2022-11-19T06:24:23.718Z,5.90
2022-11-19T06:26:51.278Z,5.17
2022-11-19T06:29:19.455Z,5.90
2022-11-19T06:31:47.234Z,4.83
2022-11-19T06:34:15.166Z,6.83
2022-11-19T06:36:47.617Z,6.20
2022-11-19T06:39:18.653Z,6.40
2022-11-19T06:41:48.887Z,5.97
2022-11-19T06:44:16.590Z,5.43
2022-11-19T06:46:44.053Z,12.33
2022-11-19T06:49:16.807Z,6.13
2022-11-19T06:51:47.493Z,6.50
2022-11-19T06:54:15.002Z,6.83
2022-11-19T06:56:42.555Z,6.53
2022-11-19T06:59:10.010Z,4.83
2022-11-19T07:01:37.452Z,6.17
2022-11-19T07:04:05.133Z,7.23
2022-11-19T07:06:32.640Z,4.80
2022-11-19T07:09:00.195Z,6.90
2022-11-19T07:11:27.782Z,5.43
2022-11-19T07:13:57.326Z,6.43
2022-11-19T07:16:26.930Z,7.63
2022-11-19T07:18:54.531Z,5.73
2022-11-19T07:21:22.119Z,7.27
2022-11-19T07:23:49.531Z,8.23
2022-11-19T07:26:17.028Z,4.93
2022-11-19T07:28:45.900Z,6.93
2022-11-19T07:31:13.772Z,5.30
2022-11-19T07:33:41.543Z,7.60
2022-11-19T07:36:16.857Z,5.27
2022-11-19T07:38:47.203Z,4.25
2022-11-19T07:41:33.122Z,5.10
2022-11-19T07:44:31.567Z,6.13
2022-11-19T07:46:59.241Z,5.70
2022-11-19T07:49:27.285Z,4.83
2022-11-19T07:51:54.948Z,6.73
2022-11-19T07:54:22.506Z,5.73
2022-11-19T07:56:50.250Z,4.47
2022-11-19T07:59:18.491Z,5.57
2022-11-19T08:01:46.260Z,4.63
2022-11-19T08:04:13.932Z,5.07
2022-11-19T08:06:41.456Z,6.90
2022-11-19T08:09:09.078Z,4.30
2022-11-19T08:11:36.630Z,5.07
2022-11-19T08:14:04.131Z,4.97
2022-11-19T08:16:51.891Z,4.43
2022-11-19T08:19:20.427Z,5.30
2022-11-19T08:21:48.474Z,3.93
2022-11-19T08:24:18.957Z,5.17
2022-11-19T08:26:47.420Z,5.63
2022-11-19T08:29:17.431Z,4.97
2022-11-19T08:31:46.872Z,4.70
2022-11-19T08:34:15.472Z,5.60
2022-11-19T08:36:43.459Z,6.97
2022-11-19T08:39:11.444Z,6.17
2022-11-19T08:41:57.239Z,5.83
2022-11-19T08:44:24.879Z,6.00
2022-11-19T08:46:52.385Z,5.03
2022-11-19T08:49:20.179Z,7.53
2022-11-19T08:51:47.655Z,5.70
2022-11-19T08:54:15.250Z,6.53
2022-11-19T08:56:42.682Z,6.17
2022-11-19T08:59:10.206Z,5.17
2022-11-19T09:01:37.686Z,4.40
2022-11-19T09:04:05.404Z,8.03
2022-11-19T09:06:35.906Z,6.43
2022-11-19T09:09:04.829Z,6.47
2022-11-19T09:11:32.420Z,4.53
2022-11-19T09:13:59.934Z,5.90
2022-11-19T09:16:27.632Z,4.17
2022-11-19T09:18:55.253Z,5.07
2022-11-19T09:21:22.699Z,5.47
2022-11-19T09:23:50.193Z,4.17
2022-11-19T09:26:19.005Z,5.73
2022-11-19T09:28:46.564Z,6.13
2022-11-19T09:31:17.350Z,5.07
2022-11-19T09:33:50.310Z,3.83
2022-11-19T09:36:19.787Z,7.53
2022-11-19T09:38:48.342Z,4.83
2022-11-19T09:41:37.137Z,4.77
2022-11-19T09:44:40.374Z,4.97
2022-11-19T09:47:22.868Z,5.20
2022-11-19T09:50:03.634Z,5.37
2022-11-19T09:52:37.291Z,6.97
2022-11-19T09:55:05.633Z,6.43
2022-11-19T09:57:53.412Z,4.57
2022-11-19T10:00:25.130Z,6.00
2022-11-19T10:02:53.769Z,6.60
2022-11-19T10:05:36.550Z,7.67
2022-11-19T10:08:28.875Z,6.80
2022-11-19T10:11:29.953Z,6.50
2022-11-19T10:14:20.609Z,6.27
2022-11-19T10:17:14.243Z,6.83
2022-11-19T10:20:03.046Z,7.00
2022-11-19T10:22:40.025Z,5.30
2022-11-19T10:25:10.656Z,5.90
2022-11-19T10:27:47.576Z,7.57
2022-11-19T10:30:21.695Z,7.03
2022-11-19T10:33:07.756Z,6.90
2022-11-19T10:35:42.808Z,6.47
2022-11-19T10:38:33.099Z,6.37
2022-11-19T10:41:15.588Z,6.40
2022-11-19T10:43:52.091Z,7.50
2022-11-19T10:46:24.896Z,8.67
2022-11-19T10:48:57.805Z,5.33
2022-11-19T10:51:29.825Z,5.80
2022-11-19T10:53:57.734Z,4.43
2022-11-19T10:56:38.820Z,5.40
2022-11-19T10:59:13.061Z,5.97
2022-11-19T11:01:44.659Z,5.73
2022-11-19T11:04:29.904Z,6.30
2022-11-19T11:07:03.015Z,5.53
2022-11-19T11:09:40.634Z,7.73
2022-11-19T11:15:01.120Z,4.43
2022-11-19T11:17:30.808Z,5.50
2022-11-19T11:20:00.068Z,4.77
2022-11-19T11:22:29.043Z,6.13
2022-11-19T11:25:00.472Z,5.87
2022-11-19T11:27:33.758Z,4.37
2022-11-19T11:30:28.662Z,4.33
2022-11-19T11:32:56.529Z,4.40
2022-11-19T11:35:36.575Z,6.17
2022-11-19T11:38:05.389Z,7.30
2022-11-19T11:40:35.260Z,5.57
2022-11-19T11:43:07.813Z,6.43
2022-11-19T11:45:36.888Z,7.70
2022-11-19T11:48:16.433Z,8.30
2022-11-19T11:50:49.157Z,7.53
2022-11-19T11:53:27.651Z,7.63
2022-11-19T11:56:01.026Z,5.97
2022-11-19T11:58:32.388Z,6.43
2022-11-19T12:01:19.792Z,9.03
2022-11-19T12:03:59.712Z,7.90
2022-11-19T12:06:38.894Z,5.47
2022-11-19T12:09:33.811Z,5.70
2022-11-19T12:12:38.251Z,5.47
2022-11-19T12:15:34.651Z,6.37
2022-11-19T12:18:16.009Z,7.37
2022-11-19T12:20:55.348Z,4.63
2022-11-19T12:23:48.874Z,5.70
2022-11-19T12:26:46.449Z,6.33
2022-11-19T12:29:37.970Z,5.20
2022-11-19T12:32:07.302Z,6.23
2022-11-19T12:34:34.819Z,6.80
2022-11-19T12:37:23.672Z,8.80
2022-11-19T12:40:01.235Z,7.50
2022-11-19T12:43:00.087Z,5.40
2022-11-19T12:45:51.085Z,6.37
2022-11-19T12:48:55.681Z,5.07
2022-11-19T12:51:48.277Z,5.93
2022-11-19T12:54:34.404Z,6.60
2022-11-19T12:57:20.910Z,6.60
2022-11-19T13:00:21.410Z,5.93
2022-11-19T13:03:05.542Z,8.30
2022-11-19T13:05:50.421Z,6.20
2022-11-19T13:08:40.254Z,6.97
2022-11-19T13:11:14.809Z,7.20
2022-11-19T13:13:48.610Z,7.60
2022-11-19T13:16:20.266Z,7.23
2022-11-19T13:18:51.643Z,4.97
2022-11-19T13:21:39.328Z,6.50
2022-11-19T13:24:25.841Z,5.40
2022-11-19T13:26:58.033Z,5.17
2022-11-19T13:29:37.558Z,12.00
2022-11-19T13:32:27.904Z,9.23
2022-11-19T13:35:13.797Z,5.80
2022-11-19T13:38:12.348Z,7.13
2022-11-19T13:40:43.519Z,7.70
2022-11-19T13:43:36.683Z,6.90
2022-11-19T13:46:42.787Z,6.77
2022-11-19T13:49:28.098Z,6.20
2022-11-19T13:52:19.771Z,8.13
2022-11-19T13:54:47.475Z,5.87
2022-11-19T13:57:41.960Z,7.03
2022-11-19T14:00:28.090Z,6.67
2022-11-19T14:03:26.743Z,7.73
2022-11-19T14:08:38.400Z,6.60
2022-11-19T14:11:27.131Z,7.97
2022-11-19T14:14:32.446Z,6.50
2022-11-19T14:17:42.125Z,7.40
2022-11-19T14:20:53.023Z,5.83
2022-11-19T14:24:06.966Z,7.03
2022-11-19T14:26:40.516Z,9.70
2022-11-19T14:29:26.201Z,7.70
2022-11-19T14:32:08.508Z,7.53
2022-11-19T14:34:40.453Z,6.43
2022-11-19T14:37:28.697Z,13.87
2022-11-19T14:42:32.622Z,7.83
2022-11-19T14:45:03.135Z,7.43
2022-11-19T14:47:35.622Z,9.77
2022-11-19T14:50:25.601Z,9.50
2022-11-19T14:52:56.054Z,8.63
2022-11-19T14:55:33.084Z,11.60
2022-11-19T14:58:26.956Z,13.07
2022-11-19T15:01:10.649Z,9.63
2022-11-19T15:03:38.449Z,7.77
2022-11-19T15:06:08.249Z,7.43
2022-11-19T15:09:02.328Z,9.13
2022-11-19T15:11:57.657Z,9.63
2022-11-19T15:14:59.878Z,8.80
2022-11-19T15:17:28.206Z,9.13
2022-11-19T15:20:22.528Z,10.10
2022-11-19T15:23:28.539Z,11.37
2022-11-19T15:26:23.038Z,9.53
2022-11-19T15:29:22.426Z,9.37
2022-11-19T15:32:03.022Z,14.03
2022-11-19T15:34:56.339Z,9.90
2022-11-19T15:37:39.508Z,11.40
2022-11-19T15:40:12.456Z,10.33
2022-11-19T15:43:02.056Z,10.90
2022-11-19T15:45:39.613Z,9.47
2022-11-19T15:50:43.236Z,11.77
2022-11-19T15:53:21.276Z,9.30
2022-11-19T15:55:59.884Z,10.53
2022-11-19T15:58:38.909Z,12.10
2022-11-19T16:01:09.650Z,12.47
2022-11-19T16:03:39.414Z,10.40
2022-11-19T16:06:31.640Z,13.90
2022-11-19T16:09:05.120Z,10.57
2022-11-19T16:11:54.679Z,12.33
2022-11-19T16:14:46.559Z,11.33
2022-11-19T16:17:43.445Z,12.33
2022-11-19T16:20:11.542Z,11.20
2022-11-19T16:23:04.531Z,11.57
2022-11-19T16:25:43.342Z,12.73
2022-11-19T16:28:14.482Z,11.13
2022-11-19T16:30:48.236Z,13.63
2022-11-19T16:33:18.731Z,11.73
2022-11-19T16:35:52.381Z,13.50
2022-11-19T16:38:28.899Z,13.13
2022-11-19T16:41:16.416Z,15.37
2022-11-19T16:43:48.566Z,14.38
2022-11-19T16:46:20.401Z,18.67
2022-11-19T16:48:51.023Z,15.10
2022-11-19T16:51:26.378Z,12.13
2022-11-19T16:53:53.849Z,17.13
2022-11-19T16:56:23.019Z,12.90
2022-11-19T16:58:56.763Z,13.10
2022-11-19T17:01:28.075Z,15.53
2022-11-19T17:04:07.532Z,12.10
2022-11-19T17:06:37.852Z,13.23
2022-11-19T17:09:06.779Z,16.27
2022-11-19T17:12:18.614Z,12.03
2022-11-19T17:14:55.589Z,13.10
2022-11-19T17:17:40.711Z,11.40
2022-11-19T17:20:27.131Z,12.80
2022-11-19T17:22:55.418Z,12.50
2022-11-19T17:25:24.360Z,13.67
2022-11-19T17:27:57.711Z,14.07
2022-11-19T17:30:31.062Z,12.00
2022-11-19T17:33:04.824Z,13.80
2022-11-19T17:35:43.495Z,12.77
2022-11-19T17:38:17.174Z,12.03
2022-11-19T17:40:56.750Z,13.37
2022-11-19T17:43:54.404Z,14.63
2022-11-19T17:46:23.829Z,13.37
2022-11-19T17:48:52.882Z,14.03
2022-11-19T17:51:25.417Z,14.40
2022-11-19T17:53:53.428Z,14.30
2022-11-19T17:56:30.442Z,12.37
2022-11-19T17:58:59.771Z,19.40
2022-11-19T18:01:28.023Z,17.43
2022-11-19T18:03:55.693Z,15.90
2022-11-19T18:06:23.410Z,16.00
2022-11-19T18:08:51.465Z,15.60
2022-11-19T18:11:24.946Z,17.57
2022-11-19T18:13:55.258Z,15.37
2022-11-19T18:16:25.633Z,16.40
2022-11-19T18:18:56.133Z,15.00
2022-11-19T18:21:24.187Z,14.57
2022-11-19T18:23:53.176Z,14.27
2022-11-19T18:26:25.184Z,12.97
2022-11-19T18:28:52.860Z,11.53
2022-11-19T18:31:26.765Z,10.67
2022-11-19T18:33:56.170Z,12.73
2022-11-19T18:36:25.391Z,11.93
2022-11-19T18:38:54.969Z,11.37
2022-11-19T18:41:22.686Z,13.03
2022-11-19T18:44:08.786Z,10.43
2022-11-19T18:46:36.420Z,13.63
2022-11-19T18:49:04.582Z,12.83
2022-11-19T18:51:32.546Z,10.97
2022-11-19T18:54:00.411Z,9.60
2022-11-19T18:56:29.244Z,8.77
2022-11-19T18:59:00.449Z,11.23
2022-11-19T19:01:32.254Z,10.73
2022-11-19T19:03:59.832Z,13.50
2022-11-19T19:06:27.426Z,14.07
2022-11-19T19:08:55.015Z,13.77
2022-11-19T19:11:41.394Z,10.60
2022-11-19T19:14:09.024Z,14.03
2022-11-19T19:16:36.555Z,12.07
2022-11-19T19:19:04.587Z,10.23
2022-11-19T19:21:32.277Z,9.97
2022-11-19T19:23:59.831Z,9.60
2022-11-19T19:26:27.673Z,9.93
2022-11-19T19:28:55.438Z,9.87
2022-11-19T19:31:24.310Z,8.60
2022-11-19T19:33:52.464Z,10.57
2022-11-19T19:36:21.858Z,8.10
2022-11-19T19:38:49.658Z,7.13
2022-11-19T19:41:27.822Z,7.63
2022-11-19T19:43:59.796Z,9.23
2022-11-19T19:46:27.524Z,9.13
2022-11-19T19:48:58.473Z,7.63
2022-11-19T19:51:29.066Z,8.50
2022-11-19T19:53:57.113Z,8.83
2022-11-19T19:56:27.646Z,6.17
2022-11-19T19:58:56.783Z,8.20
2022-11-19T20:01:27.409Z,8.23
2022-11-19T20:04:01.810Z,10.33
2022-11-19T20:06:30.312Z,8.03
2022-11-19T20:08:57.898Z,9.13
2022-11-19T20:11:26.473Z,7.63
2022-11-19T20:13:55.947Z,8.43
2022-11-19T20:16:28.985Z,9.23
2022-11-19T20:18:57.811Z,8.43
2022-11-19T20:21:36.368Z,7.37
2022-11-19T20:24:10.341Z,7.33
2022-11-19T20:26:41.032Z,8.60
2022-11-19T20:29:11.607Z,8.10
2022-11-19T20:31:39.835Z,8.07
2022-11-19T20:34:07.857Z,7.93
2022-11-19T20:36:36.152Z,8.67
2022-11-19T20:39:05.013Z,7.73
2022-11-19T20:41:51.504Z,6.60
2022-11-19T20:44:23.317Z,8.50
2022-11-19T20:46:53.740Z,7.40
2022-11-19T20:49:24.329Z,8.80
2022-11-19T20:51:52.929Z,7.70
2022-11-19T20:54:21.825Z,11.00
2022-11-19T20:56:50.927Z,12.63
2022-11-19T20:59:18.984Z,10.37
2022-11-19T21:01:49.448Z,8.33
2022-11-19T21:04:17.813Z,8.90
2022-11-19T21:06:45.710Z,7.47
2022-11-19T21:09:15.840Z,10.47
2022-11-19T21:11:44.046Z,8.67
2022-11-19T21:14:11.875Z,8.83
2022-11-19T21:16:39.409Z,7.27
2022-11-19T21:19:07.012Z,9.40
2022-11-19T21:21:35.506Z,8.13
2022-11-19T21:24:03.174Z,15.70
2022-11-19T21:26:30.770Z,8.60
2022-11-19T21:28:59.454Z,7.53
2022-11-19T21:31:39.873Z,9.10
2022-11-19T21:34:34.009Z,10.57
2022-11-19T21:37:01.629Z,8.70
2022-11-19T21:39:29.066Z,11.17
2022-11-19T21:41:57.105Z,9.03
2022-11-19T21:44:24.618Z,9.43
2022-11-19T21:46:52.121Z,8.37
2022-11-19T21:49:19.838Z,11.33
2022-11-19T21:51:48.050Z,8.00
2022-11-19T21:54:15.570Z,8.40
2022-11-19T21:56:43.135Z,9.43
2022-11-19T21:59:10.778Z,8.83
2022-11-19T22:01:38.532Z,8.70
2022-11-19T22:04:06.213Z,8.93
2022-11-19T22:06:36.075Z,10.43
2022-11-19T22:09:03.730Z,8.13
2022-11-19T22:11:34.401Z,9.73
2022-11-19T22:14:07.568Z,10.40
2022-11-19T22:16:38.227Z,9.37
2022-11-19T22:19:09.204Z,7.97
2022-11-19T22:21:36.773Z,8.97
2022-11-19T22:24:04.589Z,10.20
2022-11-19T22:26:32.221Z,10.23
2022-11-19T22:28:59.803Z,9.37
2022-11-19T22:31:27.464Z,9.23
2022-11-19T22:33:55.678Z,8.93
2022-11-19T22:36:23.921Z,10.30
2022-11-19T22:38:52.677Z,9.90
2022-11-19T22:41:21.740Z,10.40
2022-11-19T22:43:49.734Z,9.50
2022-11-19T22:46:18.489Z,10.70
2022-11-19T22:48:46.217Z,7.43
2022-11-19T22:51:16.424Z,9.50
2022-11-19T22:53:44.333Z,12.03
2022-11-19T22:56:13.895Z,9.67
2022-11-19T22:58:41.941Z,7.83
2022-11-19T23:01:30.933Z,10.53
2022-11-19T23:04:01.722Z,12.03
2022-11-19T23:06:29.362Z,10.83
2022-11-19T23:08:56.980Z,10.63
2022-11-19T23:11:43.439Z,9.47
2022-11-19T23:14:16.797Z,10.33
2022-11-19T23:16:47.862Z,8.97
2022-11-19T23:19:26.473Z,11.13
2022-11-19T23:21:53.913Z,8.33
2022-11-19T23:24:21.498Z,9.77
2022-11-19T23:26:49.055Z,9.83
2022-11-19T23:29:16.463Z,8.30
2022-11-19T23:31:46.428Z,11.40
2022-11-19T23:34:13.901Z,10.40
2022-11-19T23:36:41.816Z,7.93
2022-11-19T23:39:14.858Z,9.37
2022-11-19T23:41:42.879Z,8.90
2022-11-19T23:44:10.340Z,8.33
2022-11-19T23:46:38.040Z,9.37
2022-11-19T23:49:06.068Z,8.90
2022-11-19T23:51:38.292Z,7.83
2022-11-19T23:54:06.699Z,8.37
2022-11-19T23:56:36.168Z,8.53
2022-11-19T23:59:06.743Z,9.47
